Time;durP1;ratioP1;P1;durP2;ratioP2;P2;SDS_P1;SDS_P2;PMS_P1;PMS_P2;Temp;Humidity;BMP_temperature;BMP_pressure;BME280_temperature;BME280_humidity;BME280_pressure;Samples;Min_cycle;Max_cycle;Signal;HPM_P1;HPM_P2
2023/02/04 00:02:23;;;;;;;7.67;6.07;;;;;;;7.31;100.00;99379.63;5032583;28;20212;-77
2023/02/04 00:04:50;;;;;;;7.13;5.80;;;;;;;7.28;100.00;99379.75;5032311;28;20219;-77
2023/02/04 00:07:17;;;;;;;7.67;5.97;;;;;;;7.26;100.00;99385.97;5031556;28;20711;-77
2023/02/04 00:09:45;;;;;;;7.33;5.77;;;;;;;7.24;100.00;99389.50;5032154;28;20239;-77
2023/02/04 00:12:12;;;;;;;7.83;6.20;;;;;;;7.22;100.00;99379.97;5032512;28;20401;-77
2023/02/04 00:14:38;;;;;;;8.53;5.43;;;;;;;7.25;100.00;99387.72;5032695;28;20212;-77
2023/02/04 00:17:06;;;;;;;6.37;5.37;;;;;;;7.26;100.00;99397.34;5032155;28;20209;-78
2023/02/04 00:19:32;;;;;;;6.23;5.10;;;;;;;7.24;100.00;99388.66;5032215;28;20398;-77
2023/02/04 00:22:02;;;;;;;6.17;5.00;;;;;;;7.29;100.00;99381.47;5032256;28;20205;-77
2023/02/04 00:24:29;;;;;;;7.80;6.03;;;;;;;7.27;100.00;99388.53;5032191;28;20212;-78
2023/02/04 00:26:56;;;;;;;5.90;5.30;;;;;;;7.26;100.00;99393.88;5032477;28;20318;-78
2023/02/04 00:29:22;;;;;;;7.17;5.70;;;;;;;7.21;100.00;99386.13;5031699;28;20667;-78
2023/02/04 00:31:49;;;;;;;6.17;4.77;;;;;;;7.20;100.00;99392.28;5031745;28;20213;-78
2023/02/04 00:34:17;;;;;;;5.90;4.97;;;;;;;7.29;100.00;99394.63;5032071;28;20212;-77
2023/02/04 00:36:43;;;;;;;6.30;4.63;;;;;;;7.32;100.00;99392.72;5032138;28;20224;-77
2023/02/04 00:39:11;;;;;;;6.23;3.83;;;;;;;7.38;100.00;99390.78;5031583;28;20236;-78
2023/02/04 00:41:37;;;;;;;4.10;3.40;;;;;;;7.42;100.00;99395.88;5032020;28;20216;-77
2023/02/04 00:44:04;;;;;;;4.70;3.67;;;;;;;7.40;100.00;99397.69;5031698;28;20208;-78
2023/02/04 00:46:31;;;;;;;6.83;3.80;;;;;;;7.39;100.00;99403.88;5031552;28;20235;-77
2023/02/04 00:48:57;;;;;;;4.67;3.80;;;;;;;7.41;100.00;99396.78;5031388;28;20927;-78
2023/02/04 00:51:24;;;;;;;7.37;4.20;;;;;;;7.42;100.00;99403.78;5031697;28;20242;-77
2023/02/04 00:53:50;;;;;;;4.40;3.70;;;;;;;7.38;100.00;99397.75;5031616;28;20213;-77
2023/02/04 00:56:18;;;;;;;6.80;4.03;;;;;;;7.41;100.00;99394.16;5031604;28;20231;-77
2023/02/04 00:58:44;;;;;;;5.33;3.87;;;;;;;7.41;100.00;99397.63;5031204;28;20236;-78
2023/02/04 01:01:11;;;;;;;5.43;4.00;;;;;;;7.36;100.00;99396.09;5031519;28;20219;-78
2023/02/04 01:03:37;;;;;;;5.40;3.87;;;;;;;7.37;100.00;99400.44;5031572;28;20231;-77
2023/02/04 01:06:04;;;;;;;5.17;3.90;;;;;;;7.32;100.00;99402.38;5031358;28;20229;-77
2023/02/04 01:08:31;;;;;;;5.37;4.30;;;;;;;7.29;100.00;99379.66;5031309;28;20580;-77
2023/02/04 01:10:57;;;;;;;6.00;3.17;;;;;;;7.32;100.00;99410.25;5031406;28;20235;-77
2023/02/04 01:13:25;;;;;;;5.87;3.87;;;;;;;7.29;100.00;99403.34;5031556;28;20211;-77
2023/02/04 01:15:51;;;;;;;5.90;4.77;;;;;;;7.26;100.00;99399.13;5031447;28;20205;-77
2023/02/04 01:18:18;;;;;;;5.37;4.87;;;;;;;7.23;100.00;99386.94;5031411;28;20240;-77
2023/02/04 01:20:44;;;;;;;7.70;4.90;;;;;;;7.21;100.00;99399.25;5031403;28;20212;-77
2023/02/04 01:23:11;;;;;;;7.43;5.50;;;;;;;7.18;100.00;99398.53;5031319;28;20223;-77
2023/02/04 01:25:37;;;;;;;6.67;4.33;;;;;;;7.16;100.00;99411.75;5031332;28;20213;-78
2023/02/04 01:28:04;;;;;;;5.40;3.83;;;;;;;7.13;100.00;99411.84;5031090;28;20212;-78
2023/02/04 01:30:32;;;;;;;5.47;4.10;;;;;;;7.10;100.00;99421.59;5030956;28;20212;-77
2023/02/04 01:32:58;;;;;;;5.50;4.30;;;;;;;7.08;100.00;99411.13;5031162;28;20211;-77
2023/02/04 01:35:25;;;;;;;4.37;3.53;;;;;;;7.06;100.00;99420.84;5031098;28;20266;-77
2023/02/04 01:37:51;;;;;;;6.93;3.70;;;;;;;7.02;100.00;99424.50;5030875;28;20680;-77
2023/02/04 01:40:18;;;;;;;4.10;3.70;;;;;;;7.01;100.00;99421.94;5031314;28;20216;-77
2023/02/04 01:42:45;;;;;;;5.30;4.00;;;;;;;6.99;100.00;99435.13;5031006;28;20208;-77
2023/02/04 01:45:11;;;;;;;7.80;4.90;;;;;;;6.97;100.00;99428.19;5031049;28;20204;-77
2023/02/04 01:47:40;;;;;;;8.67;5.00;;;;;;;6.94;100.00;99431.78;5030901;28;20243;-77
2023/02/04 01:50:08;;;;;;;6.60;4.23;;;;;;;6.95;100.00;99436.13;5030696;28;20239;-77
2023/02/04 01:52:37;;;;;;;4.67;3.70;;;;;;;6.98;100.00;99422.91;5030913;28;20227;-77
2023/02/04 01:55:05;;;;;;;6.53;3.50;;;;;;;6.98;100.00;99422.91;5030817;28;20212;-77
2023/02/04 01:57:33;;;;;;;3.90;2.87;;;;;;;6.99;100.00;99440.38;5030829;28;20678;-77
2023/02/04 01:59:59;;;;;;;4.33;2.50;;;;;;;7.02;100.00;99437.63;5028248;28;20499;-77
2023/02/04 02:02:42;;;;;;;5.07;2.50;;;;;;;7.04;100.00;99443.72;5028149;28;20222;-77
2023/02/04 02:05:11;;;;;;;5.03;2.40;;;;;;;7.05;100.00;99436.66;5028424;28;20211;-77
2023/02/04 02:07:37;;;;;;;5.37;1.97;;;;;;;7.04;100.00;99443.72;5030793;28;20738;-77
2023/02/04 02:10:06;;;;;;;5.23;2.37;;;;;;;7.07;100.00;99450.59;5030592;28;20239;-77
2023/02/04 02:12:33;;;;;;;2.37;2.10;;;;;;;7.11;100.00;99461.00;5030936;28;20216;-77
2023/02/04 02:15:00;;;;;;;4.13;2.30;;;;;;;7.11;100.00;99468.00;5030956;28;20209;-77
2023/02/04 02:17:27;;;;;;;7.03;2.10;;;;;;;7.16;100.00;99459.06;5031028;28;20205;-77
2023/02/04 02:19:55;;;;;;;3.93;2.50;;;;;;;7.18;100.00;99466.88;5030455;28;20406;-77
2023/02/04 02:22:27;;;;;;;4.17;2.33;;;;;;;7.08;100.00;99462.88;5030978;28;20212;-78
2023/02/04 02:24:54;;;;;;;7.53;2.53;;;;;;;7.04;100.00;99464.75;5030850;28;20227;-78
2023/02/04 02:27:22;;;;;;;4.80;2.20;;;;;;;7.12;100.00;99467.97;5030684;28;20246;-78
2023/02/04 02:29:49;;;;;;;5.37;2.50;;;;;;;7.16;100.00;99484.50;5030475;28;20240;-78
2023/02/04 02:32:16;;;;;;;5.97;2.37;;;;;;;7.09;100.00;99489.09;5033819;28;20538;-77
2023/02/04 02:34:44;;;;;;;4.57;2.23;;;;;;;7.09;100.00;99493.50;5033978;28;20204;-77
2023/02/04 02:37:11;;;;;;;4.17;2.20;;;;;;;7.09;100.00;99485.63;5034373;28;20209;-78
2023/02/04 02:39:39;;;;;;;5.47;2.10;;;;;;;7.12;100.00;99482.88;5040602;28;20225;-78
2023/02/04 02:42:08;;;;;;;6.93;2.23;;;;;;;7.12;100.00;99473.22;5041050;28;20220;-77
2023/02/04 02:44:34;;;;;;;4.67;2.20;;;;;;;7.09;100.00;99467.22;5039635;28;20208;-78
2023/02/04 02:47:01;;;;;;;5.53;2.20;;;;;;;7.07;100.00;99469.00;5035914;28;20229;-77
2023/02/04 02:49:32;;;;;;;6.17;2.27;;;;;;;7.08;100.00;99466.34;5034221;28;20227;-77
2023/02/04 02:51:58;;;;;;;8.03;2.30;;;;;;;7.04;100.00;99477.00;5034406;28;20217;-78
2023/02/04 02:54:28;;;;;;;6.77;2.23;;;;;;;7.01;100.00;99480.59;5034382;28;20209;-78
2023/02/04 02:56:56;;;;;;;10.17;2.43;;;;;;;7.02;100.00;99487.56;5034577;28;20479;-78
2023/02/04 02:59:25;;;;;;;5.90;2.13;;;;;;;6.94;100.00;99497.50;5033956;28;20566;-78
2023/02/04 03:01:56;;;;;;;9.90;2.93;;;;;;;6.97;100.00;99494.75;5033993;28;20675;-77
2023/02/04 03:04:25;;;;;;;7.87;3.17;;;;;;;6.98;100.00;99493.88;5034185;28;20212;-78
2023/02/04 03:06:52;;;;;;;9.13;2.83;;;;;;;6.96;100.00;99503.56;5034356;28;20228;-78
2023/02/04 03:09:19;;;;;;;5.37;2.60;;;;;;;6.92;100.00;99506.34;5033713;28;20608;-78
2023/02/04 03:11:46;;;;;;;6.33;2.57;;;;;;;6.94;100.00;99510.63;5033847;28;20212;-77
2023/02/04 03:14:12;;;;;;;5.07;2.83;;;;;;;6.90;100.00;99513.44;5033595;28;20215;-77
2023/02/04 03:16:43;;;;;;;5.77;2.43;;;;;;;6.89;100.00;99517.81;5033925;28;20232;-77
2023/02/04 03:19:10;;;;;;;6.60;2.33;;;;;;;6.84;100.00;99522.34;5033659;28;20240;-78
2023/02/04 03:21:36;;;;;;;6.40;2.40;;;;;;;6.81;100.00;99526.84;5033576;28;20216;-78
2023/02/04 03:24:03;;;;;;;6.67;2.80;;;;;;;6.81;100.00;99529.47;5033805;28;20334;-78
2023/02/04 03:26:30;;;;;;;5.50;2.57;;;;;;;6.80;100.00;99531.25;5033695;28;20570;-78
2023/02/04 03:28:57;;;;;;;5.03;2.80;;;;;;;6.82;100.00;99526.81;5033035;28;20244;-78
2023/02/04 03:31:23;;;;;;;8.87;2.90;;;;;;;6.76;100.00;99537.50;5033843;28;20208;-78
2023/02/04 03:33:51;;;;;;;8.60;2.73;;;;;;;6.78;100.00;99538.31;5033495;28;20705;-78
2023/02/04 03:36:18;;;;;;;8.37;3.00;;;;;;;6.75;100.00;99534.94;5033323;28;20216;-78
2023/02/04 03:38:45;;;;;;;5.83;2.50;;;;;;;6.74;100.00;99544.59;5033053;28;20255;-78
2023/02/04 03:41:11;;;;;;;5.83;2.50;;;;;;;6.70;100.00;99547.34;5032977;28;20212;-78
2023/02/04 03:43:38;;;;;;;7.03;2.70;;;;;;;6.72;100.00;99543.75;5033158;28;20208;-78
2023/02/04 03:46:05;;;;;;;4.83;2.33;;;;;;;6.66;100.00;99557.09;5033016;28;20205;-77
2023/02/04 03:48:31;;;;;;;6.40;2.77;;;;;;;6.66;100.00;99551.84;5032925;28;20243;-78
2023/02/04 03:50:59;;;;;;;5.83;2.47;;;;;;;6.63;100.00;99551.06;5032905;28;20531;-78
2023/02/04 03:53:25;;;;;;;6.10;2.33;;;;;;;6.60;100.00;99559.91;5033179;28;20211;-78
2023/02/04 03:55:52;;;;;;;6.97;2.53;;;;;;;6.59;100.00;99560.81;5032849;28;20231;-78
2023/02/04 03:58:18;;;;;;;5.70;2.70;;;;;;;6.58;100.00;99569.59;5032679;28;20235;-78
2023/02/04 04:00:45;;;;;;;6.57;2.37;;;;;;;6.55;100.00;99574.97;5032615;28;20212;-78
2023/02/04 04:03:11;;;;;;;7.23;2.60;;;;;;;6.55;100.00;99580.22;5032776;28;20211;-78
2023/02/04 04:05:38;;;;;;;4.37;2.40;;;;;;;6.53;100.00;99591.69;5032463;28;20675;-78
2023/02/04 04:08:06;;;;;;;7.87;2.37;;;;;;;6.48;100.00;99586.53;5032515;28;20243;-78
2023/02/04 04:10:32;;;;;;;8.17;3.27;;;;;;;6.43;100.00;99591.09;5032197;28;20222;-78
2023/02/04 04:12:58;;;;;;;5.00;2.37;;;;;;;6.42;100.00;99588.50;5032366;28;20671;-78
2023/02/04 04:15:25;;;;;;;6.03;2.50;;;;;;;6.38;100.00;99587.75;5032717;28;20641;-78
2023/02/04 04:17:51;;;;;;;7.47;2.70;;;;;;;6.42;100.00;99589.34;5032227;28;20210;-78
2023/02/04 04:20:18;;;;;;;6.10;2.50;;;;;;;6.40;100.00;99590.31;5032012;28;20314;-78
2023/02/04 04:22:45;;;;;;;7.67;2.40;;;;;;;6.42;100.00;99589.34;5032206;28;20682;-78
2023/02/04 04:25:13;;;;;;;9.40;3.07;;;;;;;6.38;100.00;99598.25;5032271;28;20610;-78
2023/02/04 04:27:39;;;;;;;7.23;2.50;;;;;;;6.37;100.00;99601.78;5032094;28;20235;-78
2023/02/04 04:30:06;;;;;;;6.60;2.73;;;;;;;6.38;100.00;99608.75;5031790;28;20250;-78
2023/02/04 04:32:33;;;;;;;7.03;2.30;;;;;;;6.35;100.00;99608.81;5031879;28;20207;-78
2023/02/04 04:34:59;;;;;;;5.13;2.60;;;;;;;6.38;100.00;99613.13;5031835;28;20216;-78
2023/02/04 04:37:26;;;;;;;9.70;2.67;;;;;;;6.35;100.00;99611.44;5031734;28;20206;-77
2023/02/04 04:39:52;;;;;;;8.37;2.50;;;;;;;6.29;100.00;99616.88;5031893;28;20225;-78
2023/02/04 04:42:20;;;;;;;4.63;2.60;;;;;;;6.27;100.00;99626.56;5032057;28;20609;-77
2023/02/04 04:44:46;;;;;;;7.03;2.67;;;;;;;6.30;100.00;99620.38;5031898;28;20216;-78
2023/02/04 04:47:13;;;;;;;7.77;2.77;;;;;;;6.21;100.00;99621.50;5031745;28;20236;-78
2023/02/04 04:49:39;;;;;;;6.80;2.87;;;;;;;6.19;100.00;99619.81;5031365;28;20236;-78
2023/02/04 04:52:06;;;;;;;8.07;2.53;;;;;;;6.21;100.00;99621.50;5031559;28;20387;-78
2023/02/04 04:54:32;;;;;;;6.33;3.20;;;;;;;6.17;100.00;99625.09;5031394;28;20223;-78
2023/02/04 04:56:59;;;;;;;7.63;3.10;;;;;;;6.19;100.00;99619.81;5031502;28;20219;-78
2023/02/04 04:59:27;;;;;;;7.00;2.90;;;;;;;6.14;100.00;99619.94;5036330;23;20612;-77
2023/02/04 05:01:53;;;;;;;6.20;3.03;;;;;;;6.19;100.00;99627.69;5012046;28;20227;-77
2023/02/04 05:04:20;;;;;;;5.83;3.27;;;;;;;6.14;100.00;99627.81;5011890;28;20223;-77
2023/02/04 05:06:46;;;;;;;5.63;3.40;;;;;;;6.15;100.00;99626.91;5011732;28;20283;-78
2023/02/04 05:09:14;;;;;;;8.13;3.40;;;;;;;6.14;100.00;99627.81;5011720;28;20252;-78
2023/02/04 05:11:40;;;;;;;8.13;3.20;;;;;;;6.09;100.00;99627.09;5011963;28;20240;-78
2023/02/04 05:14:06;;;;;;;10.67;4.10;;;;;;;6.09;100.00;99627.09;5012002;28;20213;-78
2023/02/04 05:16:34;;;;;;;9.33;3.60;;;;;;;6.06;100.00;99627.19;5011892;28;20207;-78
2023/02/04 05:19:01;;;;;;;7.87;3.87;;;;;;;6.03;100.00;99627.25;5011150;28;20247;-78
2023/02/04 05:21:27;;;;;;;12.00;3.77;;;;;;;6.01;100.00;99626.44;5011573;28;20244;-79
2023/02/04 05:23:54;;;;;;;11.10;4.13;;;;;;;6.01;100.00;99639.56;5011715;28;20236;-78
2023/02/04 05:26:20;;;;;;;7.10;3.60;;;;;;;6.01;100.00;99638.69;5011797;28;20224;-78
2023/02/04 05:28:47;;;;;;;13.63;4.17;;;;;;;5.99;100.00;99628.22;5011360;28;20236;-79
2023/02/04 05:31:13;;;;;;;9.23;3.70;;;;;;;6.01;100.00;99642.19;5011558;28;20211;-78
2023/02/04 05:33:41;;;;;;;5.37;3.77;;;;;;;5.99;100.00;99646.59;5011340;28;20208;-78
2023/02/04 05:36:07;;;;;;;7.17;4.07;;;;;;;5.98;100.00;99649.28;5011717;28;20257;-79
2023/02/04 05:38:34;;;;;;;8.00;4.33;;;;;;;5.97;100.00;99640.53;5011590;28;20250;-79
2023/02/04 05:41:00;;;;;;;7.97;4.47;;;;;;;5.95;100.00;99639.72;5011265;28;20212;-79
2023/02/04 05:43:27;;;;;;;7.97;4.17;;;;;;;5.94;100.00;99643.25;5011497;28;20213;-79
2023/02/04 05:45:53;;;;;;;9.83;4.53;;;;;;;5.94;100.00;99645.88;5011344;28;20212;-78
2023/02/04 05:48:20;;;;;;;8.27;4.00;;;;;;;5.97;100.00;99629.16;5011147;28;20244;-77
2023/02/04 05:50:47;;;;;;;10.30;4.67;;;;;;;5.95;100.00;99642.34;5011246;28;20213;-77
2023/02/04 05:53:14;;;;;;;9.03;5.13;;;;;;;5.94;100.00;99643.25;5011401;28;20212;-78
2023/02/04 05:55:40;;;;;;;8.63;4.63;;;;;;;5.92;100.00;99645.03;5011407;28;20217;-79
2023/02/04 05:58:07;;;;;;;9.03;4.60;;;;;;;5.89;100.00;99639.91;5011257;28;20205;-78
2023/02/04 06:00:33;;;;;;;9.20;4.70;;;;;;;5.88;100.00;99647.81;5010700;28;20241;-78
2023/02/04 06:03:00;;;;;;;10.57;5.10;;;;;;;5.85;100.00;99653.13;5011127;28;20209;-79
2023/02/04 06:05:26;;;;;;;12.10;5.60;;;;;;;5.82;100.00;99659.34;5011638;28;20213;-79
2023/02/04 06:07:54;;;;;;;15.43;5.87;;;;;;;5.82;100.00;99668.94;5014839;28;20716;-79
2023/02/04 06:10:21;;;;;;;7.20;5.37;;;;;;;5.78;100.00;99668.13;5015061;28;20242;-78
2023/02/04 06:12:47;;;;;;;12.03;5.30;;;;;;;5.76;100.00;99677.81;5015076;28;20209;-78
2023/02/04 06:15:15;;;;;;;8.57;5.00;;;;;;;5.76;100.00;99680.44;5014746;28;20213;-79
2023/02/04 06:17:41;;;;;;;11.50;5.10;;;;;;;5.73;100.00;99691.00;5014780;28;20297;-78
2023/02/04 06:20:09;;;;;;;11.33;5.27;;;;;;;5.70;100.00;99691.09;5014676;28;20766;-79
2023/02/04 06:22:35;;;;;;;10.97;5.43;;;;;;;5.69;100.00;99689.34;5014879;28;20204;-79
2023/02/04 06:25:03;;;;;;;12.27;5.67;;;;;;;5.68;100.00;99695.50;5014794;28;20221;-78
2023/02/04 06:27:30;;;;;;;14.53;5.93;;;;;;;5.67;100.00;99691.16;5014608;28;20723;-77
2023/02/04 06:29:56;;;;;;;9.53;5.83;;;;;;;5.61;100.00;99698.34;5014193;28;20232;-79
2023/02/04 06:32:23;;;;;;;9.67;5.70;;;;;;;5.53;100.00;99693.25;5014640;28;20737;-79
2023/02/04 06:34:52;;;;;;;10.60;5.63;;;;;;;5.52;100.00;99696.78;5014844;28;20511;-80
2023/02/04 06:37:19;;;;;;;13.63;6.23;;;;;;;5.54;100.00;99694.09;5014663;28;20298;-77
2023/02/04 06:39:45;;;;;;;12.40;5.80;;;;;;;5.55;100.00;99704.56;5014448;28;20236;-77
2023/02/04 06:42:13;;;;;;;14.27;6.30;;;;;;;5.57;100.00;99701.91;5014320;28;20215;-77
2023/02/04 06:44:39;;;;;;;16.37;6.27;;;;;;;5.56;100.00;99714.16;5014268;28;20219;-76
2023/02/04 06:47:06;;;;;;;13.53;6.00;;;;;;;5.62;100.00;99718.41;5014229;28;20216;-75
2023/02/04 06:49:33;;;;;;;14.30;6.03;;;;;;;5.62;100.00;99716.63;5013859;28;20659;-78
2023/02/04 06:51:59;;;;;;;12.47;5.90;;;;;;;5.62;100.00;99713.16;5014491;28;20597;-78
2023/02/04 06:54:26;;;;;;;15.70;6.60;;;;;;;5.64;100.00;99711.34;5014317;28;20215;-79
2023/02/04 06:56:52;;;;;;;10.57;5.20;;;;;;;5.71;100.00;99729.53;5014483;28;20214;-78
2023/02/04 06:59:20;;;;;;;11.37;6.33;;;;;;;5.66;100.00;99735.78;5014146;28;20239;-78
2023/02/04 07:01:46;;;;;;;19.50;6.37;;;;;;;5.68;100.00;99740.09;5014960;28;20216;-77
2023/02/04 07:04:13;;;;;;;14.00;5.80;;;;;;;5.70;100.00;99740.06;5014506;28;20235;-77
2023/02/04 07:06:39;;;;;;;14.07;5.87;;;;;;;5.70;100.00;99742.69;5013991;28;20216;-76
2023/02/04 07:09:06;;;;;;;13.03;5.43;;;;;;;5.74;100.00;99745.19;5013422;28;20236;-80
2023/02/04 07:11:32;;;;;;;13.53;6.47;;;;;;;5.71;100.00;99753.16;5013866;28;20212;-76
2023/02/04 07:13:59;;;;;;;17.80;6.63;;;;;;;5.76;100.00;99743.41;5013965;28;20213;-78
2023/02/04 07:16:27;;;;;;;17.63;6.90;;;;;;;5.72;100.00;99762.72;5013202;28;20211;-78
2023/02/04 07:18:53;;;;;;;17.90;6.93;;;;;;;5.78;100.00;99766.97;5013433;28;20258;-78
2023/02/04 07:21:20;;;;;;;10.97;5.67;;;;;;;5.77;100.00;99771.38;5013701;28;20220;-78
2023/02/04 07:23:46;;;;;;;19.03;7.03;;;;;;;5.80;100.00;99787.03;5013613;28;20215;-78
2023/02/04 07:26:13;;;;;;;13.60;6.57;;;;;;;5.77;100.00;99792.34;5013453;28;20254;-77
2023/02/04 07:28:41;;;;;;;16.43;6.43;;;;;;;5.82;100.00;99789.63;5013383;28;20727;-77
2023/02/04 07:31:07;;;;;;;12.63;5.43;;;;;;;5.81;100.00;99794.00;5013170;28;20651;-78
2023/02/04 07:33:35;;;;;;;8.97;5.63;;;;;;;5.89;100.00;99786.84;5013370;28;20699;-78
2023/02/04 07:36:02;;;;;;;13.90;6.10;;;;;;;5.83;100.00;99789.63;5013482;28;20219;-77
2023/02/04 07:38:28;;;;;;;16.50;5.50;;;;;;;5.84;100.00;99791.34;5013485;28;20208;-78
2023/02/04 07:40:55;;;;;;;9.40;4.73;;;;;;;5.91;100.00;99800.78;5012952;28;20706;-77
2023/02/04 07:43:21;;;;;;;11.13;5.50;;;;;;;5.91;100.00;99795.53;5013503;28;20209;-77
2023/02/04 07:45:48;;;;;;;9.27;4.70;;;;;;;5.90;100.00;99795.56;5025575;28;20208;-75
2023/02/04 07:48:14;;;;;;;14.53;5.23;;;;;;;5.81;100.00;99801.88;5033461;28;20262;-76
2023/02/04 07:50:42;;;;;;;13.00;5.03;;;;;;;5.84;100.00;99796.59;5032859;28;20216;-78
2023/02/04 07:53:09;;;;;;;13.07;4.20;;;;;;;5.88;100.00;99805.25;5033084;28;20230;-77
2023/02/04 07:55:35;;;;;;;12.67;5.10;;;;;;;5.85;100.00;99800.94;5032915;28;20218;-78
2023/02/04 07:58:02;;;;;;;11.30;4.43;;;;;;;5.87;100.00;99804.38;5032973;28;20255;-76
2023/02/04 08:00:28;;;;;;;13.73;4.47;;;;;;;5.88;100.00;99811.38;5032437;28;20259;-76
2023/02/04 08:02:55;;;;;;;9.60;3.97;;;;;;;5.82;100.00;99819.38;5032722;28;20212;-77
2023/02/04 08:05:21;;;;;;;9.63;4.40;;;;;;;5.82;100.00;99821.13;5032643;28;20211;-76
2023/02/04 08:07:49;;;;;;;10.37;4.00;;;;;;;5.81;100.00;99812.38;5032391;28;20285;-77
2023/02/04 08:10:15;;;;;;;12.50;4.23;;;;;;;5.78;100.00;99822.94;5032446;28;20250;-78
2023/02/04 08:12:42;;;;;;;9.67;3.73;;;;;;;5.79;100.00;99829.91;5032325;28;20223;-76
2023/02/04 08:15:09;;;;;;;9.40;4.30;;;;;;;5.84;100.00;99827.19;5032639;28;20391;-78
2023/02/04 08:17:36;;;;;;;9.03;4.27;;;;;;;5.82;100.00;99824.63;5032434;28;20254;-77
2023/02/04 08:20:02;;;;;;;14.30;4.43;;;;;;;5.86;100.00;99828.88;5032059;28;20391;-77
2023/02/04 08:22:29;;;;;;;9.80;4.60;;;;;;;5.90;100.00;99840.16;5032214;28;20216;-75
2023/02/04 08:24:57;;;;;;;13.00;4.17;;;;;;;5.90;100.00;99835.78;5032247;28;20214;-77
2023/02/04 08:27:23;;;;;;;13.73;4.67;;;;;;;5.92;100.00;99839.22;5032108;28;20218;-76
2023/02/04 08:29:50;;;;;;;9.37;4.00;;;;;;;5.89;100.00;99851.56;5031133;28;20259;-75
2023/02/04 08:32:16;;;;;;;7.80;4.50;;;;;;;5.85;100.00;99858.66;5032327;28;20216;-77
2023/02/04 08:34:43;;;;;;;16.47;5.73;;;;;;;5.76;100.00;99847.47;5032063;28;20213;-77
2023/02/04 08:37:10;;;;;;;11.27;5.30;;;;;;;5.76;100.00;99852.72;5030359;28;20583;-76
2023/02/04 08:39:37;;;;;;;20.23;6.87;;;;;;;5.65;100.00;99860.84;5030483;28;20244;-76
2023/02/04 08:42:05;;;;;;;10.60;5.20;;;;;;;5.61;100.00;99861.78;5032038;28;20208;-76
2023/02/04 08:44:31;;;;;;;12.53;6.03;;;;;;;5.59;100.00;99860.97;5032164;28;20224;-76
2023/02/04 08:46:58;;;;;;;16.37;6.30;;;;;;;5.55;100.00;99864.56;5031744;28;20227;-77
2023/02/04 08:49:24;;;;;;;13.17;5.60;;;;;;;5.55;100.00;99868.94;5031720;28;20239;-77
2023/02/04 08:51:51;;;;;;;17.43;6.30;;;;;;;5.51;100.00;99867.28;5031772;28;20220;-78
2023/02/04 08:54:17;;;;;;;12.93;6.30;;;;;;;5.57;100.00;99870.63;5031797;28;20670;-76
2023/02/04 08:56:44;;;;;;;12.87;6.20;;;;;;;5.58;100.00;99884.59;5031914;28;20214;-77
2023/02/04 08:59:11;;;;;;;13.67;7.17;;;;;;;5.56;100.00;99881.16;5031393;28;20243;-76
2023/02/04 09:01:38;;;;;;;15.47;6.80;;;;;;;5.58;100.00;99888.09;5031715;28;20690;-76
2023/02/04 09:04:04;;;;;;;14.70;6.47;;;;;;;5.58;100.00;99885.47;5031627;28;20207;-77
2023/02/04 09:06:31;;;;;;;11.53;6.40;;;;;;;5.61;100.00;99884.56;5032013;28;20235;-76
2023/02/04 09:08:57;;;;;;;16.30;6.67;;;;;;;5.58;100.00;99888.09;5031315;28;20241;-75
2023/02/04 09:11:24;;;;;;;12.67;6.03;;;;;;;5.62;100.00;99891.53;5030985;28;20213;-76
2023/02/04 09:13:51;;;;;;;12.93;6.10;;;;;;;5.64;100.00;99893.22;5031423;28;20237;-76
2023/02/04 09:16:19;;;;;;;16.67;6.80;;;;;;;5.66;100.00;99888.78;5031342;28;20211;-75
2023/02/04 09:18:45;;;;;;;13.63;6.60;;;;;;;5.66;100.00;99888.78;5030900;28;20243;-76
2023/02/04 09:21:12;;;;;;;16.87;7.77;;;;;;;5.71;100.00;99891.31;5031361;28;20635;-76
2023/02/04 09:23:38;;;;;;;19.70;8.17;;;;;;;5.74;100.00;99902.59;5031678;28;20213;-76
2023/02/04 09:26:08;;;;;;;13.03;6.33;;;;;;;5.80;100.00;99915.59;5031432;28;20208;-75
2023/02/04 09:28:34;;;;;;;13.83;6.20;;;;;;;5.77;100.00;99907.78;5031159;28;20259;-75
2023/02/04 09:31:00;;;;;;;13.10;6.73;;;;;;;5.77;100.00;99922.66;5031061;28;20583;-76
2023/02/04 09:33:28;;;;;;;12.90;6.60;;;;;;;5.86;100.00;99917.25;5031208;28;20222;-78
2023/02/04 09:35:55;;;;;;;14.47;7.13;;;;;;;6.02;100.00;99910.75;5031152;28;20210;-76
2023/02/04 09:38:21;;;;;;;12.17;6.83;;;;;;;6.14;100.00;99919.22;5031443;28;20214;-76
2023/02/04 09:40:53;;;;;;;10.80;5.60;;;;;;;6.31;100.00;99924.94;5033549;28;20273;-76
2023/02/04 09:43:23;;;;;;;17.23;5.20;;;;;;;6.51;100.00;99924.44;5035375;28;20211;-77
2023/02/04 09:45:50;;;;;;;14.23;5.97;;;;;;;6.66;100.00;99924.91;5035258;28;20233;-76
2023/02/04 09:48:18;;;;;;;13.20;5.47;;;;;;;6.74;100.00;99937.84;5035423;28;20215;-76
2023/02/04 09:50:46;;;;;;;12.10;5.37;;;;;;;6.74;100.00;99935.25;5035091;28;20218;-75
2023/02/04 09:53:16;;;;;;;15.43;5.33;;;;;;;6.81;100.00;99932.41;5035232;28;20216;-75
2023/02/04 09:55:44;;;;;;;14.63;4.40;;;;;;;6.87;100.00;99929.63;5035145;28;20238;-76
2023/02/04 09:58:15;;;;;;;9.53;3.77;;;;;;;6.92;100.00;99919.00;5034946;28;20205;-76
2023/02/04 10:00:41;;;;;;;10.73;3.60;;;;;;;6.95;100.00;99911.88;5034655;28;20266;-76
2023/02/04 10:03:14;;;;;;;13.30;4.27;;;;;;;7.01;100.00;99909.09;5034923;28;20701;-77
2023/02/04 10:05:41;;;;;;;10.97;3.30;;;;;;;7.27;97.51;99903.97;5035391;28;20209;-76
2023/02/04 10:08:14;;;;;;;10.30;2.97;;;;;;;7.40;94.74;99902.72;5034786;28;20211;-75
2023/02/04 10:10:41;;;;;;;7.63;2.50;;;;;;;7.48;86.88;99887.59;5034504;28;20600;-76
2023/02/04 10:13:15;;;;;;;11.63;2.53;;;;;;;7.44;83.14;99883.31;5034792;28;20296;-77
2023/02/04 10:15:42;;;;;;;12.37;2.63;;;;;;;7.55;83.01;99883.88;5034755;28;20204;-76
2023/02/04 10:18:08;;;;;;;8.07;2.73;;;;;;;7.45;81.72;99888.53;5034912;28;20231;-75
2023/02/04 10:20:35;;;;;;;9.57;3.10;;;;;;;7.40;82.76;99894.81;5034490;28;20208;-75
2023/02/04 10:23:01;;;;;;;9.90;3.00;;;;;;;7.40;85.48;99905.34;5034642;28;20205;-76
2023/02/04 10:25:29;;;;;;;10.57;3.27;;;;;;;7.56;85.84;99909.28;5035029;28;20212;-75
2023/02/04 10:27:57;;;;;;;13.00;3.00;;;;;;;7.52;83.75;99902.38;5035034;28;20212;-75
2023/02/04 10:30:26;;;;;;;9.93;3.20;;;;;;;7.59;84.98;99906.56;5034593;28;20236;-75
2023/02/04 10:32:54;;;;;;;8.17;3.20;;;;;;;7.63;85.03;99901.16;5034419;28;20212;-75
2023/02/04 10:35:22;;;;;;;10.13;3.27;;;;;;;7.58;84.25;99889.03;5034317;28;20257;-75
2023/02/04 10:38:02;;;;;;;12.03;3.00;;;;;;;7.65;85.51;99890.59;5034101;28;20215;-76
2023/02/04 10:40:32;;;;;;;11.80;3.37;;;;;;;7.57;83.38;99882.06;5034081;28;20238;-75
2023/02/04 10:42:58;;;;;;;9.23;2.80;;;;;;;7.73;83.43;99888.59;5034160;28;20217;-74
2023/02/04 10:45:27;;;;;;;9.67;3.10;;;;;;;7.74;82.81;99879.78;5034343;28;20213;-75
2023/02/04 10:47:56;;;;;;;9.83;3.03;;;;;;;8.01;85.06;99894.72;5034105;28;20212;-74
2023/02/04 10:50:25;;;;;;;10.17;3.63;;;;;;;8.23;84.55;99895.81;5033558;28;20268;-75
2023/02/04 10:54:28;;;;;;;10.30;3.30;;;;;;;8.19;78.43;99868.72;5033375;28;20236;-76
2023/02/04 10:55:43;;;;;;;8.47;3.10;;;;;;;8.11;78.73;99868.06;5033793;28;20304;-75
2023/02/04 10:58:12;;;;;;;11.40;3.20;;;;;;;8.04;78.29;99863.91;5034053;28;20208;-75
2023/02/04 11:00:38;;;;;;;10.37;2.83;;;;;;;8.03;77.41;99861.31;5032287;23;20246;-82
2023/02/04 11:03:10;;;;;;;10.37;2.60;;;;;;;7.83;77.11;99863.72;5013764;28;20206;-82
2023/02/04 11:05:37;;;;;;;10.80;2.83;;;;;;;7.94;76.55;99873.00;5013826;28;20256;-80
2023/02/04 11:08:19;;;;;;;12.27;3.42;;;;;;;8.01;76.91;99873.66;5013358;28;20443;-81
2023/02/04 11:10:50;;;;;;;8.83;2.83;;;;;;;7.95;79.69;99890.50;5013564;28;20241;-79
2023/02/04 11:13:23;;;;;;;9.97;2.70;;;;;;;8.05;78.91;99893.72;5013643;28;20220;-80
2023/02/04 11:15:54;;;;;;;13.90;2.97;;;;;;;8.06;77.31;99887.53;5013895;28;20239;-80
2023/02/04 11:18:32;;;;;;;8.57;2.90;;;;;;;7.99;77.34;99881.63;5013768;28;20214;-78
2023/02/04 11:20:59;;;;;;;6.90;2.50;;;;;;;8.01;75.46;99871.03;5013454;28;20232;-80
2023/02/04 11:23:36;;;;;;;8.67;2.90;;;;;;;8.04;75.01;99863.91;5013526;28;20233;-79
2023/02/04 11:26:32;;;;;;;9.93;3.13;;;;;;;8.11;76.88;99872.47;5013243;28;20443;-79
2023/02/04 11:29:22;;;;;;;11.40;3.00;;;;;;;8.16;76.78;99870.56;5012924;28;20237;-78
2023/02/04 11:31:58;;;;;;;14.77;3.07;;;;;;;8.22;75.14;99860.72;5013558;28;20213;-79
2023/02/04 11:34:28;;;;;;;8.50;2.10;;;;;;;8.24;76.13;99865.91;5013266;28;20290;-79